createdAt,value
2018-12-29T00:02:28.478Z,66.80
2018-12-29T00:04:57.059Z,64.03
2018-12-29T00:07:25.628Z,62.85
2018-12-29T00:09:54.218Z,60.95
2018-12-29T00:12:22.781Z,67.47
2018-12-29T00:14:55.020Z,58.85
2018-12-29T00:17:21.580Z,62.10
2018-12-29T00:19:50.173Z,66.20
2018-12-29T00:22:18.732Z,64.00
2018-12-29T00:24:47.329Z,65.57
2018-12-29T00:27:15.892Z,66.67
2018-12-29T00:29:44.490Z,63.70
2018-12-29T00:32:13.053Z,64.65
2018-12-29T00:34:41.618Z,63.92
2018-12-29T00:37:10.227Z,63.63
2018-12-29T00:39:38.779Z,71.02
2018-12-29T00:42:07.374Z,64.25
2018-12-29T00:44:35.940Z,61.23
2018-12-29T00:47:04.537Z,67.70
2018-12-29T00:49:33.108Z,69.50
2018-12-29T00:52:01.701Z,64.05
2018-12-29T00:54:30.259Z,59.58
2018-12-29T00:56:58.854Z,56.23
2018-12-29T00:59:27.416Z,60.15
2018-12-29T01:01:56.020Z,63.87
2018-12-29T01:04:24.578Z,55.92
2018-12-29T01:06:53.169Z,64.67
2018-12-29T01:09:21.744Z,61.63
2018-12-29T01:11:50.337Z,59.05
2018-12-29T01:14:18.907Z,52.10
2018-12-29T01:16:47.500Z,69.05
2018-12-29T01:19:16.060Z,63.63
2018-12-29T01:21:44.653Z,63.75
2018-12-29T01:24:13.221Z,67.08
2018-12-29T01:26:41.821Z,58.25
2018-12-29T01:29:10.386Z,60.15
2018-12-29T01:31:38.985Z,60.73
2018-12-29T01:34:07.549Z,63.40
2018-12-29T01:36:36.144Z,66.80
2018-12-29T01:39:06.140Z,65.60
2018-12-29T01:41:34.728Z,60.25
2018-12-29T01:44:03.292Z,62.43
2018-12-29T01:46:31.885Z,62.50
2018-12-29T01:49:00.453Z,61.77
2018-12-29T01:51:29.050Z,56.98
2018-12-29T01:53:57.611Z,61.20
2018-12-29T01:56:26.201Z,60.90
2018-12-29T01:58:54.800Z,61.37
2018-12-29T02:01:23.362Z,55.85
2018-12-29T02:03:51.953Z,54.05
2018-12-29T02:06:20.516Z,56.37
2018-12-29T02:08:49.113Z,60.05
2018-12-29T02:11:17.670Z,55.80
2018-12-29T02:13:46.255Z,57.62
2018-12-29T02:16:14.887Z,54.65
2018-12-29T02:18:43.478Z,54.83
2018-12-29T02:21:12.052Z,56.08
2018-12-29T02:23:40.645Z,53.20
2018-12-29T02:26:09.208Z,55.55
2018-12-29T02:28:37.880Z,57.48
2018-12-29T02:31:06.449Z,54.20
2018-12-29T02:33:35.043Z,57.83
2018-12-29T02:36:03.606Z,54.30
2018-12-29T02:38:32.196Z,55.48
2018-12-29T02:41:00.769Z,52.85
2018-12-29T02:43:29.366Z,58.65
2018-12-29T02:45:57.942Z,53.38
2018-12-29T02:48:26.589Z,51.23
2018-12-29T02:50:55.156Z,54.40
2018-12-29T02:53:23.758Z,53.65
2018-12-29T02:55:52.316Z,53.87
2018-12-29T02:58:20.880Z,49.55
2018-12-29T03:00:49.476Z,55.23
2018-12-29T03:03:18.046Z,53.38
2018-12-29T03:05:46.634Z,57.05
2018-12-29T03:08:15.197Z,56.48
2018-12-29T03:10:43.792Z,57.08
2018-12-29T03:13:12.354Z,62.05
2018-12-29T03:15:41.995Z,59.65
2018-12-29T03:18:10.625Z,65.87
2018-12-29T03:20:39.210Z,59.95
2018-12-29T03:23:07.788Z,62.78
2018-12-29T03:25:36.369Z,62.33
2018-12-29T03:28:04.931Z,63.75
2018-12-29T03:30:33.529Z,65.17
2018-12-29T03:33:02.103Z,62.30
2018-12-29T03:35:30.693Z,70.03
2018-12-29T03:37:59.248Z,64.53
2018-12-29T03:40:27.836Z,67.65
2018-12-29T03:42:56.468Z,65.83
2018-12-29T03:45:25.068Z,64.62
2018-12-29T03:47:53.628Z,67.95
2018-12-29T03:50:22.221Z,76.55
2018-12-29T03:52:51.029Z,75.00
2018-12-29T03:55:19.616Z,71.25
2018-12-29T03:57:48.196Z,64.32
2018-12-29T04:00:16.789Z,79.47
2018-12-29T04:02:45.368Z,71.02
2018-12-29T04:05:13.949Z,73.78
2018-12-29T04:07:42.508Z,72.47
2018-12-29T04:10:14.016Z,68.97
2018-12-29T04:12:44.314Z,73.47
2018-12-29T04:15:12.977Z,73.60
2018-12-29T04:17:41.539Z,73.70
2018-12-29T04:20:10.113Z,80.95
2018-12-29T04:22:38.717Z,73.35
2018-12-29T04:25:07.276Z,77.20
2018-12-29T04:27:35.874Z,71.05
2018-12-29T04:30:04.867Z,72.65
2018-12-29T04:32:33.464Z,75.78
2018-12-29T04:35:02.035Z,75.72
2018-12-29T04:37:30.622Z,81.80
2018-12-29T04:39:59.187Z,74.25
2018-12-29T04:42:27.781Z,81.42
2018-12-29T04:44:56.336Z,76.40
2018-12-29T04:47:24.933Z,80.38
2018-12-29T04:49:53.492Z,71.90
2018-12-29T04:52:22.084Z,76.37
2018-12-29T04:54:50.647Z,80.12
2018-12-29T04:57:19.248Z,75.60
2018-12-29T04:59:47.808Z,74.75
2018-12-29T05:02:16.424Z,66.35
2018-12-29T05:04:45.065Z,70.65
2018-12-29T05:07:13.583Z,69.92
2018-12-29T05:09:42.140Z,67.40
2018-12-29T05:12:10.736Z,65.47
2018-12-29T05:14:39.305Z,67.47
2018-12-29T05:17:07.896Z,66.92
2018-12-29T05:19:36.529Z,67.27
2018-12-29T05:22:05.123Z,64.92
2018-12-29T05:24:33.754Z,70.52
2018-12-29T05:27:02.347Z,69.77
2018-12-29T05:29:30.917Z,69.70
2018-12-29T05:31:59.512Z,67.87
2018-12-29T05:34:28.076Z,67.62
2018-12-29T05:36:56.714Z,64.42
2018-12-29T05:39:25.305Z,69.17
2018-12-29T05:41:53.874Z,61.05
2018-12-29T05:44:22.464Z,63.65
2018-12-29T05:46:51.028Z,59.08
2018-12-29T05:49:19.623Z,62.10
2018-12-29T05:51:48.200Z,61.23
2018-12-29T05:54:16.792Z,59.88
2018-12-29T05:56:45.355Z,63.55
2018-12-29T05:59:13.944Z,63.40
2018-12-29T06:01:42.512Z,64.15
2018-12-29T06:04:11.097Z,66.07
2018-12-29T06:06:39.668Z,59.67
2018-12-29T06:09:08.261Z,60.80
2018-12-29T06:11:36.829Z,58.35
2018-12-29T06:14:05.418Z,64.90
2018-12-29T06:16:33.989Z,55.98
2018-12-29T06:19:02.583Z,56.55
2018-12-29T06:21:31.141Z,60.90
2018-12-29T06:23:59.739Z,61.02
2018-12-29T06:26:28.302Z,57.35
2018-12-29T06:28:56.904Z,58.83
2018-12-29T06:31:25.477Z,54.85
2018-12-29T06:33:54.074Z,57.03
2018-12-29T06:36:22.638Z,68.42
2018-12-29T06:38:51.200Z,58.25
2018-12-29T06:41:19.792Z,57.45
2018-12-29T06:43:48.358Z,57.55
2018-12-29T06:46:16.952Z,54.33
2018-12-29T06:48:45.521Z,62.25
2018-12-29T06:51:14.115Z,58.48
2018-12-29T06:53:42.685Z,55.52
2018-12-29T06:56:11.276Z,60.65
2018-12-29T06:58:39.849Z,60.30
2018-12-29T07:01:08.457Z,56.45
2018-12-29T07:03:37.019Z,60.17
2018-12-29T07:06:05.614Z,63.60
2018-12-29T07:08:34.246Z,53.58
2018-12-29T07:11:02.844Z,52.33
2018-12-29T07:13:31.417Z,56.00
2018-12-29T07:16:00.005Z,51.60
2018-12-29T07:18:28.568Z,52.43
2018-12-29T07:20:57.169Z,53.55
2018-12-29T07:23:25.736Z,52.60
2018-12-29T07:25:54.327Z,53.48
2018-12-29T07:28:22.895Z,55.88
2018-12-29T07:30:51.485Z,49.88
2018-12-29T07:33:20.046Z,50.00
2018-12-29T07:35:48.640Z,50.65
2018-12-29T07:38:17.204Z,51.13
2018-12-29T07:40:45.806Z,50.98
2018-12-29T07:43:14.382Z,53.78
2018-12-29T07:45:42.946Z,48.48
2018-12-29T07:48:11.561Z,49.45
2018-12-29T07:50:40.129Z,50.30
2018-12-29T07:53:08.723Z,47.98
2018-12-29T07:55:37.291Z,46.73
2018-12-29T07:58:05.892Z,47.80
2018-12-29T08:00:34.461Z,49.08
2018-12-29T08:03:03.056Z,50.30
2018-12-29T08:05:32.454Z,48.93
2018-12-29T08:08:01.105Z,47.60
2018-12-29T08:10:29.669Z,47.65
2018-12-29T08:12:58.270Z,50.05
2018-12-29T08:15:26.832Z,46.33
2018-12-29T08:17:55.438Z,47.33
2018-12-29T08:20:23.992Z,46.77
2018-12-29T08:22:52.588Z,49.63
2018-12-29T08:25:21.153Z,48.75
2018-12-29T08:27:49.749Z,47.35
2018-12-29T08:30:18.321Z,46.55
2018-12-29T08:32:46.920Z,46.48
2018-12-29T08:35:15.481Z,47.67
2018-12-29T08:37:44.084Z,44.77
2018-12-29T08:40:12.653Z,49.05
2018-12-29T08:42:41.247Z,44.60
2018-12-29T08:45:09.875Z,48.03
2018-12-29T08:47:38.475Z,47.60
2018-12-29T08:50:13.041Z,45.78
2018-12-29T08:52:37.509Z,43.38
2018-12-29T08:55:06.148Z,46.18
2018-12-29T08:57:34.732Z,43.20
2018-12-29T09:00:04.035Z,45.93
2018-12-29T09:02:32.655Z,41.88
2018-12-29T09:05:01.224Z,48.95
2018-12-29T09:07:29.819Z,45.35
2018-12-29T09:09:58.536Z,46.23
2018-12-29T09:12:27.140Z,43.80
2018-12-29T09:14:55.703Z,44.80
2018-12-29T09:17:24.261Z,46.73
2018-12-29T09:19:52.858Z,43.90
2018-12-29T09:22:21.417Z,49.93
2018-12-29T09:24:50.004Z,42.60
2018-12-29T09:27:18.580Z,41.68
2018-12-29T09:29:47.179Z,41.42
2018-12-29T09:32:15.745Z,50.87
2018-12-29T09:34:44.333Z,44.80
2018-12-29T09:37:12.890Z,50.27
2018-12-29T09:39:41.476Z,50.37
2018-12-29T09:42:10.047Z,43.97
2018-12-29T09:44:38.634Z,45.93
2018-12-29T09:47:07.188Z,47.50
2018-12-29T09:49:35.854Z,47.40
2018-12-29T09:52:04.344Z,40.23
2018-12-29T09:54:32.940Z,44.00
2018-12-29T09:57:01.491Z,46.70
2018-12-29T09:59:30.085Z,46.03
2018-12-29T10:01:58.646Z,49.53
2018-12-29T10:04:27.236Z,41.40
2018-12-29T10:06:55.800Z,46.40
2018-12-29T10:09:24.413Z,44.40
2018-12-29T10:11:52.951Z,41.37
2018-12-29T10:14:21.536Z,43.90
2018-12-29T10:16:50.092Z,48.97
2018-12-29T10:19:18.680Z,48.60
2018-12-29T10:21:47.242Z,44.20
2018-12-29T10:24:15.833Z,45.17
2018-12-29T10:26:44.394Z,44.47
2018-12-29T10:29:12.952Z,44.73
2018-12-29T10:31:41.548Z,45.33
2018-12-29T10:34:10.113Z,44.93
2018-12-29T10:36:38.701Z,46.77
2018-12-29T10:39:07.262Z,39.13
2018-12-29T10:41:35.856Z,41.20
2018-12-29T10:44:04.485Z,39.67
2018-12-29T10:46:33.083Z,40.63
2018-12-29T10:49:01.629Z,43.87
2018-12-29T10:51:30.218Z,40.53
2018-12-29T10:53:58.773Z,37.40
2018-12-29T10:56:27.368Z,40.43
2018-12-29T10:58:55.931Z,45.57
2018-12-29T11:01:24.522Z,41.50
2018-12-29T11:03:53.086Z,39.27
2018-12-29T11:06:21.685Z,46.27
2018-12-29T11:08:50.239Z,40.67
2018-12-29T11:11:18.843Z,39.70
2018-12-29T11:13:47.395Z,41.13
2018-12-29T11:16:17.232Z,46.63
2018-12-29T11:18:45.793Z,41.37
2018-12-29T11:21:14.382Z,42.47
2018-12-29T11:23:42.943Z,43.37
2018-12-29T11:26:11.532Z,41.03
2018-12-29T11:28:40.961Z,42.33
2018-12-29T11:31:09.553Z,48.97
2018-12-29T11:33:38.112Z,46.73
2018-12-29T11:36:06.704Z,50.57
2018-12-29T11:38:35.269Z,43.47
2018-12-29T11:41:03.841Z,42.73
2018-12-29T11:43:32.433Z,39.27
2018-12-29T11:46:00.992Z,47.10
2018-12-29T11:48:29.592Z,40.30
2018-12-29T11:50:58.154Z,44.07
2018-12-29T11:53:27.102Z,46.50
2018-12-29T11:55:55.660Z,42.50
2018-12-29T11:58:24.246Z,43.30
2018-12-29T12:00:52.829Z,46.43
2018-12-29T12:03:21.413Z,43.13
2018-12-29T12:05:50.345Z,41.83
2018-12-29T12:08:19.001Z,44.90
2018-12-29T12:10:47.565Z,43.97
2018-12-29T12:13:16.153Z,42.23
2018-12-29T12:15:44.712Z,50.03
2018-12-29T12:18:13.603Z,51.27
2018-12-29T12:20:42.160Z,42.67
2018-12-29T12:23:10.752Z,46.40
2018-12-29T12:25:39.312Z,45.60
2018-12-29T12:28:08.201Z,47.20
2018-12-29T12:30:36.759Z,43.33
2018-12-29T12:33:05.354Z,44.30
2018-12-29T12:35:33.912Z,45.50
2018-12-29T12:38:02.733Z,43.17
2018-12-29T12:40:31.297Z,44.83
2018-12-29T12:42:59.877Z,43.93
2018-12-29T12:45:28.436Z,45.43
2018-12-29T12:47:57.016Z,47.10
2018-12-29T12:50:25.571Z,42.80
2018-12-29T12:52:54.173Z,46.37
2018-12-29T12:55:22.732Z,46.87
2018-12-29T12:57:51.336Z,49.50
2018-12-29T13:00:20.200Z,48.73
2018-12-29T13:02:48.760Z,48.40
2018-12-29T13:05:17.352Z,49.20
2018-12-29T13:07:45.908Z,53.53
2018-12-29T13:10:14.497Z,52.07
2018-12-29T13:12:43.059Z,45.73
2018-12-29T13:15:11.721Z,49.03
2018-12-29T13:17:40.278Z,48.00
2018-12-29T13:20:08.865Z,46.07
2018-12-29T13:22:37.432Z,47.83
2018-12-29T13:25:06.161Z,46.60
2018-12-29T13:27:34.721Z,45.23
2018-12-29T13:30:04.061Z,46.07
2018-12-29T13:32:32.623Z,48.77
2018-12-29T13:35:01.233Z,44.00
2018-12-29T13:37:29.787Z,53.87
2018-12-29T13:39:58.376Z,47.67
2018-12-29T13:42:26.944Z,46.87
2018-12-29T13:44:55.528Z,47.90
2018-12-29T13:47:24.108Z,49.60
2018-12-29T13:49:52.693Z,51.23
2018-12-29T13:52:21.263Z,52.10
2018-12-29T13:54:49.848Z,48.90
2018-12-29T13:57:18.409Z,52.83
2018-12-29T13:59:47.221Z,54.00
2018-12-29T14:02:15.798Z,56.27
2018-12-29T14:04:44.336Z,54.87
2018-12-29T14:07:12.932Z,56.10
2018-12-29T14:09:41.499Z,56.83
2018-12-29T14:12:10.381Z,58.73
2018-12-29T14:14:38.941Z,58.20
2018-12-29T14:17:07.533Z,58.77
2018-12-29T14:19:36.093Z,61.17
2018-12-29T14:22:04.683Z,58.10
2018-12-29T14:24:33.341Z,59.90
2018-12-29T14:27:01.932Z,63.80
2018-12-29T14:29:30.499Z,60.83
2018-12-29T14:31:59.086Z,61.80
2018-12-29T14:34:27.651Z,64.03
2018-12-29T14:36:56.541Z,61.63
2018-12-29T14:39:25.103Z,61.07
2018-12-29T14:41:53.699Z,63.17
2018-12-29T14:44:22.529Z,57.97
2018-12-29T14:46:51.119Z,61.73
2018-12-29T14:49:19.683Z,58.03
2018-12-29T14:51:48.263Z,61.40
2018-12-29T14:54:16.837Z,61.73
2018-12-29T14:56:45.425Z,65.63
2018-12-29T14:59:13.988Z,59.83
2018-12-29T15:01:42.581Z,72.50
2018-12-29T15:04:11.131Z,64.43
2018-12-29T15:06:39.727Z,66.90
2018-12-29T15:09:08.284Z,65.63
2018-12-29T15:11:36.912Z,66.33
2018-12-29T15:14:05.453Z,65.60
2018-12-29T15:16:34.250Z,59.17
2018-12-29T15:19:02.809Z,59.17
2018-12-29T15:21:31.712Z,52.87
2018-12-29T15:24:00.272Z,53.27
2018-12-29T15:26:28.833Z,51.90
2018-12-29T15:28:57.427Z,48.67
2018-12-29T15:31:26.000Z,50.07
2018-12-29T15:33:54.589Z,49.47
2018-12-29T15:36:23.456Z,52.33
2018-12-29T15:38:52.053Z,47.57
2018-12-29T15:41:20.865Z,52.03
2018-12-29T15:43:49.752Z,49.33
2018-12-29T15:46:18.323Z,52.17
2018-12-29T15:48:51.084Z,48.57
2018-12-29T15:51:17.130Z,48.30
2018-12-29T15:53:45.701Z,52.17
2018-12-29T15:56:14.567Z,50.93
2018-12-29T15:58:43.152Z,48.17
2018-12-29T16:01:12.020Z,46.93
2018-12-29T16:03:40.620Z,48.07
2018-12-29T16:06:09.179Z,47.53
2018-12-29T16:08:37.764Z,48.03
2018-12-29T16:11:06.328Z,48.07
2018-12-29T16:13:35.215Z,48.50
2018-12-29T16:16:03.778Z,47.77
2018-12-29T16:18:32.364Z,50.50
2018-12-29T16:21:01.000Z,49.27
2018-12-29T16:23:29.593Z,50.07
2018-12-29T16:25:58.160Z,51.73
2018-12-29T16:28:26.767Z,51.60
2018-12-29T16:30:55.318Z,47.67
2018-12-29T16:33:23.909Z,44.33
2018-12-29T16:35:52.668Z,48.50
2018-12-29T16:38:21.293Z,41.57
2018-12-29T16:40:57.552Z,44.23
2018-12-29T16:43:20.060Z,42.57
2018-12-29T16:45:48.653Z,40.53
2018-12-29T16:48:17.214Z,43.87
2018-12-29T16:50:45.812Z,41.03
2018-12-29T16:53:14.376Z,40.90
2018-12-29T16:55:42.969Z,39.57
2018-12-29T16:58:11.528Z,38.10
2018-12-29T17:00:40.113Z,37.57
2018-12-29T17:03:08.680Z,39.07
2018-12-29T17:05:37.269Z,39.10
2018-12-29T17:08:05.832Z,45.27
2018-12-29T17:10:34.433Z,38.90
2018-12-29T17:13:03.012Z,39.27
2018-12-29T17:15:31.656Z,39.80
2018-12-29T17:18:00.511Z,44.80
2018-12-29T17:20:29.105Z,42.93
2018-12-29T17:22:57.669Z,40.23
2018-12-29T17:25:26.254Z,38.63
2018-12-29T17:27:54.813Z,36.20
2018-12-29T17:30:23.397Z,34.00
2018-12-29T17:32:51.961Z,37.77
2018-12-29T17:35:20.857Z,37.30
2018-12-29T17:37:49.413Z,38.77
2018-12-29T17:40:18.012Z,37.60
2018-12-29T17:42:46.575Z,35.90
2018-12-29T17:45:15.269Z,37.53
2018-12-29T17:47:43.818Z,37.73
2018-12-29T17:50:12.380Z,42.20
2018-12-29T17:52:41.059Z,41.40
2018-12-29T17:55:09.923Z,34.17
2018-12-29T17:57:38.521Z,36.97
2018-12-29T18:00:07.744Z,37.00
2018-12-29T18:02:36.344Z,34.37
2018-12-29T18:05:05.235Z,37.70
2018-12-29T18:07:33.835Z,38.03
2018-12-29T18:10:02.400Z,38.63
2018-12-29T18:12:30.993Z,36.63
2018-12-29T18:14:59.620Z,37.17
2018-12-29T18:17:28.220Z,35.53
2018-12-29T18:19:56.778Z,38.73
2018-12-29T18:22:25.425Z,37.13
2018-12-29T18:24:54.550Z,36.17
2018-12-29T18:27:23.138Z,36.67
2018-12-29T18:29:51.704Z,37.30
2018-12-29T18:32:20.472Z,36.03
2018-12-29T18:34:49.030Z,34.80
2018-12-29T18:37:17.944Z,33.57
2018-12-29T18:39:46.545Z,34.87
2018-12-29T18:42:15.107Z,33.83
2018-12-29T18:44:43.685Z,33.90
2018-12-29T18:47:12.534Z,31.13
2018-12-29T18:49:41.136Z,29.70
2018-12-29T18:52:10.590Z,31.53
2018-12-29T18:54:39.152Z,40.10
2018-12-29T18:57:07.747Z,33.07
2018-12-29T18:59:36.308Z,37.30
2018-12-29T19:02:04.964Z,36.43
2018-12-29T19:04:33.828Z,36.67
2018-12-29T19:07:02.453Z,37.43
2018-12-29T19:09:31.016Z,35.00
2018-12-29T19:11:59.588Z,33.97
2018-12-29T19:14:28.177Z,30.77
2018-12-29T19:16:56.751Z,36.13
2018-12-29T19:19:25.637Z,29.73
2018-12-29T19:21:54.201Z,31.70
2018-12-29T19:24:22.808Z,30.43
2018-12-29T19:26:51.373Z,31.83
2018-12-29T19:29:19.959Z,30.83
2018-12-29T19:31:48.520Z,30.23
2018-12-29T19:34:17.313Z,28.23
2018-12-29T19:36:45.867Z,32.07
2018-12-29T19:39:14.755Z,26.83
2018-12-29T19:41:48.069Z,26.10
2018-12-29T19:44:13.548Z,25.30
2018-12-29T19:46:42.408Z,28.87
2018-12-29T19:49:11.204Z,26.73
2018-12-29T19:51:39.769Z,30.23
2018-12-29T19:54:08.364Z,25.57
2018-12-29T19:56:37.025Z,27.60
2018-12-29T19:59:06.012Z,23.90
2018-12-29T20:01:34.580Z,25.53
2018-12-29T20:04:03.464Z,23.93
2018-12-29T20:06:32.042Z,21.77
2018-12-29T20:09:00.699Z,23.00
2018-12-29T20:11:29.260Z,24.10
2018-12-29T20:13:57.896Z,24.17
2018-12-29T20:16:26.753Z,23.67
2018-12-29T20:18:55.318Z,24.17
2018-12-29T20:21:23.943Z,23.47
2018-12-29T20:23:52.521Z,21.27
2018-12-29T20:26:21.117Z,21.17
2018-12-29T20:28:49.673Z,23.70
2018-12-29T20:31:18.259Z,27.37
2018-12-29T20:33:46.825Z,26.10
2018-12-29T20:36:15.425Z,21.87
2018-12-29T20:38:43.972Z,23.87
2018-12-29T20:41:12.610Z,24.23
2018-12-29T20:43:41.140Z,24.90
2018-12-29T20:46:09.747Z,24.13
2018-12-29T20:48:38.296Z,21.20
2018-12-29T20:51:06.887Z,23.00
2018-12-29T20:53:35.464Z,22.80
2018-12-29T20:56:06.237Z,20.93
2018-12-29T20:58:34.797Z,20.33
2018-12-29T21:01:03.389Z,21.53
2018-12-29T21:03:31.956Z,22.93
2018-12-29T21:06:00.552Z,18.63
2018-12-29T21:08:29.109Z,21.23
2018-12-29T21:10:57.710Z,20.80
2018-12-29T21:13:26.271Z,19.40
2018-12-29T21:15:54.863Z,23.40
2018-12-29T21:18:23.420Z,22.63
2018-12-29T21:20:51.996Z,19.10
2018-12-29T21:23:20.820Z,20.83
2018-12-29T21:25:49.369Z,20.60
2018-12-29T21:28:17.955Z,20.13
2018-12-29T21:30:46.508Z,19.90
2018-12-29T21:33:15.102Z,20.90
2018-12-29T21:35:43.656Z,24.10
2018-12-29T21:38:12.249Z,21.50
2018-12-29T21:40:40.831Z,19.83
2018-12-29T21:43:09.409Z,19.00
2018-12-29T21:45:37.968Z,19.47
2018-12-29T21:48:06.560Z,24.20
2018-12-29T21:50:35.320Z,20.17
2018-12-29T21:53:03.985Z,18.97
2018-12-29T21:55:32.540Z,20.80
2018-12-29T21:58:01.128Z,19.53
2018-12-29T22:00:29.693Z,20.53
2018-12-29T22:02:58.285Z,18.67
2018-12-29T22:05:27.014Z,21.47
2018-12-29T22:07:55.600Z,20.07
2018-12-29T22:10:24.160Z,21.60
2018-12-29T22:12:52.752Z,20.20
2018-12-29T22:15:21.311Z,20.10
2018-12-29T22:17:49.913Z,22.17
2018-12-29T22:20:18.476Z,25.37
2018-12-29T22:22:47.068Z,21.50
2018-12-29T22:25:15.628Z,23.57
2018-12-29T22:27:44.480Z,23.80
2018-12-29T22:30:13.040Z,22.63
2018-12-29T22:32:41.807Z,22.20
2018-12-29T22:35:10.400Z,23.30
2018-12-29T22:37:38.956Z,25.63
2018-12-29T22:40:07.548Z,22.37
2018-12-29T22:42:36.121Z,23.70
2018-12-29T22:45:05.746Z,21.77
2018-12-29T22:47:34.312Z,21.27
2018-12-29T22:50:02.896Z,21.53
2018-12-29T22:52:31.456Z,23.50
2018-12-29T22:55:00.087Z,25.00
2018-12-29T22:57:28.709Z,25.37
2018-12-29T22:59:57.348Z,23.00
2018-12-29T23:02:26.028Z,24.83
2018-12-29T23:04:54.626Z,23.80
2018-12-29T23:07:23.379Z,24.83
2018-12-29T23:09:51.964Z,24.30
2018-12-29T23:12:20.525Z,21.47
2018-12-29T23:14:49.130Z,20.73
2018-12-29T23:17:17.695Z,32.70
2018-12-29T23:19:46.288Z,24.10
2018-12-29T23:22:14.848Z,26.03
2018-12-29T23:24:43.443Z,24.07
2018-12-29T23:27:12.004Z,26.23
2018-12-29T23:29:40.593Z,28.73
2018-12-29T23:32:09.158Z,23.27
2018-12-29T23:34:38.032Z,22.60
2018-12-29T23:37:06.621Z,27.27
2018-12-29T23:39:35.179Z,28.33
2018-12-29T23:42:03.767Z,24.67
2018-12-29T23:44:32.330Z,25.60
2018-12-29T23:47:00.991Z,23.17
2018-12-29T23:49:29.748Z,26.93
2018-12-29T23:51:58.639Z,25.20
2018-12-29T23:54:27.200Z,25.33
2018-12-29T23:56:56.089Z,28.10
2018-12-29T23:59:24.648Z,27.37
